This is the latest recevied weather packets stored in our database for station/object eb1ayw-13. If no packets are shown the sender has not sent any weather packets the latest 10 day(s).
| Time | Temp. | Humidity | Pressure | Rain* | Wind** | Luminosity | Snow |
|---|---|---|---|---|---|---|---|
| 1777636857 | 52.78° C | 11% | 1005.4 hPa | - | - | - | - |
| 1777636257 | 55.56° C | 10% | 1004.9 hPa | - | - | - | - |
| 1777635657 | 54.44° C | 11% | 1005.3 hPa | - | - | - | - |
| 1777635057 | 52.78° C | 11% | 1005.6 hPa | - | - | - | - |
| 1777634457 | 52.78° C | 11% | 1005.7 hPa | - | - | - | - |
| 1777633857 | 50.56° C | 12% | 1006.3 hPa | - | - | - | - |
| 1777633257 | 50° C | 13% | 1006.6 hPa | - | - | - | - |
| 1777632657 | 46.67° C | 14% | 1007.3 hPa | - | - | - | - |
| 1777632057 | 47.78° C | 15% | 1007.1 hPa | - | - | - | - |
| 1777631457 | 50.56° C | 13% | 1006.6 hPa | - | - | - | - |
| 1777630857 | 49.44° C | 14% | 1006.9 hPa | - | - | - | - |
| 1777630257 | 51.67° C | 13% | 1006.2 hPa | - | - | - | - |
| 1777629657 | 43.33° C | 17% | 1008.3 hPa | - | - | - | - |
| 1777629057 | 50° C | 14% | 1006.8 hPa | - | - | - | - |
| 1777628457 | 54.44° C | 11% | 1005.6 hPa | - | - | - | - |
| 1777627857 | 46.67° C | 16% | 1007.4 hPa | - | - | - | - |
| 1777627257 | 45.56° C | 17% | 1007.7 hPa | - | - | - | - |
| 1777626657 | 51.67° C | 12% | 1006.2 hPa | - | - | - | - |
| 1777626057 | 48.89° C | 14% | 1006.9 hPa | - | - | - | - |
| 1777625457 | 46.67° C | 16% | 1007.4 hPa | - | - | - | - |
| 1777624857 | 47.22° C | 15% | 1007.3 hPa | - | - | - | - |
| 1777624256 | 48.33° C | 14% | 1007.2 hPa | - | - | - | - |
| 1777623657 | 52.22° C | 12% | 1006.2 hPa | - | - | - | - |
| 1777623057 | 47.78° C | 15% | 1007.2 hPa | - | - | - | - |
| 1777622457 | 47.78° C | 15% | 1007.2 hPa | - | - | - | - |
* Rain since midnight (hover to see other rain measurements)
** Current wind speed in m/s (hover to see current wind gust speed)